Time;durP1;ratioP1;P1;durP2;ratioP2;P2;SDS_P1;SDS_P2;PMS_P1;PMS_P2;Temp;Humidity;BMP_temperature;BMP_pressure;BME280_temperature;BME280_humidity;BME280_pressure;Samples;Min_cycle;Max_cycle;Signal;HPM_P1;HPM_P2
2022/06/29 00:00:39;;;;;;;8.55;3.70;;;16.10;99.90;;;;;;5817038;24;20030;-71
2022/06/29 00:04:05;;;;;;;;;;;;;;;;;;;;;
2022/06/29 00:07:26;;;;;;;;;;;;;;;;;;;;;
2022/06/29 00:10:44;;;;;;;12.65;4.10;;;16.10;99.90;;;;;;5780358;24;20049;-71
2022/06/29 00:13:48;;;;;;;;;;;;;;;;;;;;;
2022/06/29 00:17:46;;;;;;;;;;;;;;;;;;;;;
2022/06/29 00:21:17;;;;;;;11.70;3.95;;;16.20;99.90;;;;;;5958516;23;20079;-71
2022/06/29 00:25:01;;;;;;;9.77;4.28;;;16.20;99.90;;;;;;5925110;24;20016;-71
2022/06/29 00:27:52;;;;;;;14.05;4.10;;;16.30;99.90;;;;;;5955007;24;20019;-71
2022/06/29 00:34:06;;;;;;;11.57;4.15;;;16.40;99.90;;;;;;5839402;24;20479;-72
2022/06/29 00:37:13;;;;;;;;;;;;;;;;;;;;;
2022/06/29 00:40:26;;;;;;;11.70;3.63;;;16.30;99.90;;;;;;5953521;24;20053;-72
2022/06/29 00:43:50;;;;;;;7.22;3.90;;;16.30;99.90;;;;;;5956053;24;20016;-71
2022/06/29 00:54:14;;;;;;;8.50;3.72;;;16.30;99.90;;;;;;5990517;23;20395;-72
2022/06/29 01:00:44;;;;;;;8.60;3.95;;;16.30;99.90;;;;;;6037022;23;20077;-71
2022/06/29 01:04:23;;;;;;;6.53;4.30;;;16.30;99.90;;;;;;6064823;23;20021;-72
2022/06/29 01:07:53;;;;;;;;;;;;;;;;;;;;;
2022/06/29 01:14:40;;;;;;;7.80;3.65;;;16.30;99.80;;;;;;5970918;24;20024;-71
2022/06/29 01:17:20;;;;;;;13.20;4.30;;;16.30;99.90;;;;;;5956868;24;20117;-71
2022/06/29 01:20:22;;;;;;;6.88;4.03;;;16.20;99.90;;;;;;5977361;24;20008;-71
2022/06/29 01:26:49;;;;;;;9.25;4.05;;;16.20;99.90;;;;;;5980800;24;20027;-72
2022/06/29 01:29:39;;;;;;;11.20;3.83;;;16.20;99.90;;;;;;5982157;24;20020;-75
2022/06/29 01:49:59;;;;;;;8.45;4.35;;;16.20;99.90;;;;;;5816964;24;20077;-71
2022/06/29 02:43:33;;;;;;;;;;;;;;;;;;;;;
2022/06/29 03:06:07;;;;;;;5.93;4.30;;;16.20;99.50;;;;;;5765310;24;20052;-71
2022/06/29 03:54:53;;;;;;;;;;;;;;;;;;;;;
2022/06/29 04:31:39;;;;;;;;;;;;;;;;;;;;;
2022/06/29 04:46:48;;;;;;;7.00;3.88;;;16.90;97.10;;;;;;5904734;24;20055;-70
2022/06/29 04:50:22;;;;;;;;;;;;;;;;;;;;;
2022/06/29 05:08:14;;;;;;;5.47;3.58;;;16.90;97.00;;;;;;5875045;24;20005;-71
2022/06/29 05:10:45;;;;;;;10.77;4.25;;;17.10;97.00;;;;;;5801872;24;20007;-81
2022/06/29 05:13:11;;;;;;;6.22;4.10;;;17.10;97.00;;;;;;5771212;24;20007;-77
2022/06/29 05:15:40;;;;;;;8.82;4.13;;;17.10;96.90;;;;;;5872165;24;20418;-79
2022/06/29 05:18:06;;;;;;;8.63;3.80;;;17.20;96.80;;;;;;6024962;23;20013;-78
2022/06/29 05:20:31;;;;;;;9.60;3.92;;;17.10;96.90;;;;;;6107285;23;20010;-80
2022/06/29 05:30:48;;;;;;;10.35;3.60;;;17.60;95.90;;;;;;6183749;23;20287;-75
2022/06/29 05:34:11;;;;;;;8.82;3.90;;;17.70;96.10;;;;;;6159435;23;20025;-74
2022/06/29 06:21:13;;;;;;;7.53;2.88;;;19.90;91.00;;;;;;6185941;23;20336;-74
2022/06/29 06:23:39;;;;;;;;;;;20.20;91.00;;;;;;6160576;23;20028;-72
2022/06/29 06:26:04;;;;;;;12.02;3.10;;;20.30;91.00;;;;;;6159785;23;19912;-73
2022/06/29 06:28:30;;;;;;;8.10;2.85;;;20.40;90.50;;;;;;6159117;23;20017;-75
2022/06/29 06:30:56;;;;;;;4.78;2.85;;;20.50;90.60;;;;;;6135215;23;20009;-72
2022/06/29 06:33:22;;;;;;;8.10;2.70;;;20.50;90.10;;;;;;6159619;23;20059;-68
2022/06/29 06:35:48;;;;;;;17.98;3.20;;;20.50;90.10;;;;;;6159900;23;20088;-70
2022/06/29 06:50:03;;;;;;;5.88;2.63;;;21.20;86.50;;;;;;5966418;23;20033;-71
2022/06/29 06:52:37;;;;;;;5.80;2.50;;;21.30;88.90;;;;;;6019743;23;20014;-73
2022/06/29 06:55:09;;;;;;;6.90;2.00;;;21.50;86.80;;;;;;6018472;23;20299;-74
2022/06/29 06:57:43;;;;;;;9.13;2.35;;;21.60;85.80;;;;;;6042005;23;20365;-74
2022/06/29 07:00:55;;;;;;;4.35;2.05;;;21.40;84.90;;;;;;6020809;23;20010;-73
2022/06/29 07:03:55;;;;;;;4.45;2.35;;;21.40;85.30;;;;;;6087524;23;20012;-87
2022/06/29 07:06:21;;;;;;;7.68;2.15;;;21.50;84.70;;;;;;6134791;23;20432;-79
2022/06/29 07:08:49;;;;;;;3.75;2.00;;;21.70;84.80;;;;;;6133928;23;20039;-72
2022/06/29 07:15:21;;;;;;;3.38;1.92;;;22.10;83.70;;;;;;6185876;23;20007;-71
2022/06/29 07:21:18;;;;;;;3.67;1.80;;;22.20;81.20;;;;;;6184296;23;20023;-73
2022/06/29 07:23:43;;;;;;;6.15;1.95;;;22.30;82.20;;;;;;6109563;23;20439;-73
2022/06/29 07:26:09;;;;;;;6.68;1.75;;;22.40;82.60;;;;;;6134679;23;20454;-70
2022/06/29 07:28:35;;;;;;;4.88;1.95;;;22.60;80.90;;;;;;6185129;23;20098;-74
2022/06/29 07:31:00;;;;;;;4.30;1.65;;;22.80;77.90;;;;;;6159595;23;20071;-72
2022/06/29 07:33:26;;;;;;;;;;;22.80;79.50;;;;;;6135381;23;20017;-68
2022/06/29 07:35:52;;;;;;;3.92;1.60;;;22.80;80.00;;;;;;6159356;23;19979;-70
2022/06/29 07:38:19;;;;;;;;;;;23.10;78.30;;;;;;6159490;23;20028;-70
2022/06/29 07:40:45;;;;;;;7.90;1.40;;;23.00;78.50;;;;;;6159459;23;19916;-69
2022/06/29 07:43:27;;;;;;;;;;;23.00;78.00;;;;;;6158839;23;20013;-65
2022/06/29 07:45:53;;;;;;;4.07;1.95;;;23.00;77.50;;;;;;6157216;23;19950;-68
2022/06/29 07:48:19;;;;;;;3.53;1.48;;;23.10;77.90;;;;;;6131098;23;20301;-67
2022/06/29 07:50:45;;;;;;;9.05;1.55;;;23.20;78.40;;;;;;6184417;23;20024;-69
2022/06/29 07:53:11;;;;;;;;;;;23.50;78.60;;;;;;6133948;23;20053;-68
2022/06/29 07:55:36;;;;;;;4.07;1.52;;;23.80;78.50;;;;;;6156210;23;20369;-68
2022/06/29 07:58:07;;;;;;;;;;;23.40;77.60;;;;;;6157623;23;20015;-73
2022/06/29 08:05:30;;;;;;;5.75;1.30;;;23.70;76.50;;;;;;6063415;23;20045;-71
2022/06/29 08:07:58;;;;;;;5.57;1.93;;;24.10;76.90;;;;;;6151187;23;20332;-73
2022/06/29 08:58:28;;;;;;;8.13;1.83;;;25.00;74.30;;;;;;6185432;22;20335;-71
2022/06/29 09:01:08;;;;;;;3.08;1.30;;;25.10;73.90;;;;;;6141464;23;20017;-72
2022/06/29 09:03:47;;;;;;;4.22;1.40;;;25.40;74.10;;;;;;6165610;23;20004;-73
2022/06/29 09:24:26;;;;;;;5.47;1.30;;;25.80;70.70;;;;;;6038312;23;20018;-69
2022/06/29 09:27:02;;;;;;;5.53;1.42;;;25.60;71.60;;;;;;6080904;23;20036;-72
2022/06/29 09:32:59;;;;;;;3.85;1.45;;;25.50;71.70;;;;;;6158525;23;20032;-73
2022/06/29 09:35:25;;;;;;;3.13;1.13;;;25.20;71.90;;;;;;6134725;23;20021;-71
2022/06/29 09:37:50;;;;;;;5.75;1.80;;;25.30;73.40;;;;;;6158806;23;20013;-71
2022/06/29 09:40:16;;;;;;;2.58;1.27;;;25.40;73.80;;;;;;6159510;23;20017;-69
2022/06/29 09:42:44;;;;;;;6.65;2.03;;;25.40;73.80;;;;;;6186036;23;20075;-72
2022/06/29 09:45:10;;;;;;;5.47;1.30;;;25.40;72.40;;;;;;6161848;23;20012;-71
2022/06/29 09:47:38;;;;;;;6.63;1.48;;;25.80;71.00;;;;;;6112237;23;20056;-72
2022/06/29 09:50:08;;;;;;;4.25;1.33;;;25.90;70.50;;;;;;6160785;23;20386;-72
2022/06/29 09:52:37;;;;;;;4.70;1.23;;;26.10;71.30;;;;;;6160630;23;20428;-72
2022/06/29 09:55:06;;;;;;;4.47;1.30;;;26.40;70.50;;;;;;6160976;23;20048;-72
2022/06/29 09:57:35;;;;;;;3.00;1.30;;;26.50;68.60;;;;;;6135276;23;20009;-72
2022/06/29 10:02:48;;;;;;;6.65;1.30;;;26.70;69.60;;;;;;6160578;23;20087;-72
2022/06/29 10:05:23;;;;;;;5.68;1.38;;;26.80;70.10;;;;;;6160436;23;20443;-71
2022/06/29 10:07:51;;;;;;;3.60;1.20;;;26.70;70.10;;;;;;6135191;23;20071;-71
2022/06/29 10:10:19;;;;;;;4.28;1.48;;;26.50;67.90;;;;;;6135874;23;20009;-73
2022/06/29 10:19:34;;;;;;;6.22;1.30;;;27.10;69.60;;;;;;6159912;23;20020;-71
2022/06/29 10:22:01;;;;;;;3.95;1.25;;;27.20;67.50;;;;;;6135609;23;20009;-71
2022/06/29 10:24:28;;;;;;;5.22;1.20;;;27.20;67.30;;;;;;6160343;23;20024;-70
2022/06/29 10:26:57;;;;;;;4.65;1.33;;;27.10;67.40;;;;;;6185355;23;20355;-67
2022/06/29 10:29:22;;;;;;;3.65;1.08;;;27.50;67.80;;;;;;6159569;23;20099;-69
2022/06/29 10:31:54;;;;;;;6.10;1.40;;;27.70;68.30;;;;;;6186399;23;20048;-67
2022/06/29 10:34:30;;;;;;;6.95;1.33;;;27.90;65.80;;;;;;6160255;23;20424;-70
2022/06/29 10:37:02;;;;;;;2.38;1.30;;;27.80;67.10;;;;;;6135190;23;20016;-70
2022/06/29 10:39:49;;;;;;;7.28;1.40;;;27.80;63.70;;;;;;6159626;23;20059;-70
2022/06/29 10:45:08;;;;;;;6.80;1.20;;;27.40;65.60;;;;;;6157908;23;20017;-70
2022/06/29 10:47:34;;;;;;;4.35;1.10;;;27.40;66.00;;;;;;6133239;23;20020;-70
2022/06/29 10:52:42;;;;;;;1.58;0.90;;;27.50;62.80;;;;;;6159844;23;20059;-70
2022/06/29 10:55:08;;;;;;;2.95;1.10;;;27.10;59.70;;;;;;6160046;23;20301;-70
2022/06/29 10:57:35;;;;;;;5.22;0.90;;;27.30;61.90;;;;;;6185422;23;20385;-70
2022/06/29 11:00:08;;;;;;;3.50;1.13;;;27.50;63.70;;;;;;6160409;23;20016;-70
2022/06/29 11:02:34;;;;;;;3.78;1.00;;;27.30;63.60;;;;;;6135624;23;20108;-70
2022/06/29 11:05:00;;;;;;;2.67;1.08;;;27.10;61.40;;;;;;6135346;23;20017;-71
2022/06/29 11:12:56;;;;;;;2.60;1.00;;;27.10;63.00;;;;;;6159754;23;20327;-70
2022/06/29 11:18:14;;;;;;;5.88;1.58;;;27.60;60.60;;;;;;6138782;23;20455;-70
2022/06/29 11:20:42;;;;;;;6.95;0.90;;;27.90;60.00;;;;;;6135174;23;20028;-71
2022/06/29 11:23:15;;;;;;;5.43;1.42;;;28.20;59.40;;;;;;6135043;23;20017;-70
2022/06/29 11:25:45;;;;;;;4.00;1.02;;;28.00;58.80;;;;;;6159411;23;20059;-71
2022/06/29 11:28:12;;;;;;;1.92;1.05;;;27.60;60.20;;;;;;6159452;23;20013;-71
2022/06/29 11:30:38;;;;;;;1.88;0.90;;;27.30;59.80;;;;;;6186094;23;20036;-71
2022/06/29 11:33:12;;;;;;;5.47;1.17;;;27.20;60.70;;;;;;6159816;23;20013;-70
2022/06/29 11:35:39;;;;;;;2.70;1.10;;;27.10;61.80;;;;;;6159724;23;20009;-70
2022/06/29 11:38:07;;;;;;;2.80;1.00;;;27.20;59.50;;;;;;6134553;23;20079;-70
2022/06/29 11:40:41;;;;;;;5.38;1.00;;;27.30;59.40;;;;;;6186182;23;20021;-71
2022/06/29 11:43:08;;;;;;;4.30;1.20;;;27.50;60.40;;;;;;6159661;23;20327;-71
2022/06/29 11:45:51;;;;;;;3.40;1.00;;;27.40;61.10;;;;;;6185495;23;20060;-70
2022/06/29 11:48:22;;;;;;;6.03;1.00;;;27.40;59.70;;;;;;6159074;23;20021;-71
2022/06/29 11:50:48;;;;;;;2.53;1.00;;;27.40;58.50;;;;;;6159919;23;20320;-71
2022/06/29 11:53:44;;;;;;;3.20;0.90;;;27.60;57.60;;;;;;6159577;23;20019;-70
2022/06/29 11:56:15;;;;;;;3.70;1.02;;;27.80;56.20;;;;;;6159292;23;20061;-71
2022/06/29 11:58:53;;;;;;;3.83;0.90;;;27.90;56.30;;;;;;6170262;23;20013;-70
2022/06/29 12:01:24;;;;;;;3.75;0.93;;;28.10;57.00;;;;;;6161026;23;20456;-71
2022/06/29 12:03:53;;;;;;;3.28;0.93;;;28.20;53.70;;;;;;6159512;23;20015;-72
2022/06/29 12:06:22;;;;;;;7.63;0.90;;;28.00;56.70;;;;;;6184008;23;20013;-71
2022/06/29 12:08:49;;;;;;;4.53;0.95;;;28.40;55.20;;;;;;6184321;23;20006;-71
2022/06/29 12:11:15;;;;;;;4.97;0.90;;;28.60;56.50;;;;;;6185322;23;20017;-71
2022/06/29 12:13:42;;;;;;;4.45;1.13;;;28.40;55.40;;;;;;6160840;23;20070;-71
2022/06/29 12:16:11;;;;;;;4.20;1.00;;;28.20;55.70;;;;;;6184736;23;20017;-71
2022/06/29 12:18:36;;;;;;;2.40;1.02;;;28.00;54.80;;;;;;6159097;23;20020;-71
2022/06/29 12:21:03;;;;;;;2.85;0.90;;;28.40;56.30;;;;;;6185934;23;20032;-71
2022/06/29 12:23:28;;;;;;;6.90;1.00;;;28.60;56.40;;;;;;6184204;23;20016;-71
2022/06/29 12:26:06;;;;;;;3.25;0.90;;;28.30;55.10;;;;;;6160438;23;20015;-72
2022/06/29 12:28:31;;;;;;;3.88;1.10;;;27.90;55.30;;;;;;6185805;23;20021;-71
2022/06/29 12:30:57;;;;;;;3.80;1.05;;;28.00;55.00;;;;;;6161455;23;20102;-71
2022/06/29 12:33:23;;;;;;;4.25;1.02;;;28.30;55.60;;;;;;6187831;23;20017;-71
2022/06/29 12:35:50;;;;;;;2.00;0.90;;;28.50;54.50;;;;;;6161394;23;20017;-71
2022/06/29 12:38:15;;;;;;;2.28;0.88;;;28.50;53.90;;;;;;6187093;23;20060;-71
2022/06/29 12:40:41;;;;;;;4.50;1.38;;;28.70;54.10;;;;;;6187078;23;20008;-70
2022/06/29 12:43:07;;;;;;;2.88;1.00;;;28.70;53.30;;;;;;6186641;23;20092;-71
2022/06/29 12:45:33;;;;;;;7.60;1.17;;;28.60;53.80;;;;;;6185792;23;20021;-71
2022/06/29 12:47:58;;;;;;;4.80;1.20;;;28.60;54.30;;;;;;6185438;23;20096;-72
2022/06/29 12:50:25;;;;;;;4.82;0.95;;;29.10;55.00;;;;;;6186128;23;20013;-72
2022/06/29 12:52:51;;;;;;;4.40;1.00;;;29.40;52.70;;;;;;6161192;23;20327;-70
2022/06/29 12:55:19;;;;;;;6.40;1.00;;;29.60;51.90;;;;;;6185882;23;20285;-71
2022/06/29 12:57:45;;;;;;;4.07;1.10;;;29.80;52.00;;;;;;6185157;23;20013;-71
2022/06/29 13:00:12;;;;;;;2.40;0.95;;;29.50;52.10;;;;;;6161268;23;20055;-72
2022/06/29 13:02:39;;;;;;;4.75;0.90;;;29.10;51.20;;;;;;6136411;23;20013;-72
2022/06/29 13:05:05;;;;;;;1.55;0.70;;;29.00;53.10;;;;;;6135982;23;20045;-72
2022/06/29 13:07:32;;;;;;;2.08;0.73;;;29.00;50.30;;;;;;6135251;23;20020;-72
2022/06/29 13:09:58;;;;;;;4.47;0.80;;;28.60;48.80;;;;;;6161051;23;20013;-72
2022/06/29 13:12:33;;;;;;;1.27;0.80;;;28.60;52.00;;;;;;6160810;23;20083;-72
2022/06/29 13:15:27;;;;;;;2.00;0.85;;;28.50;52.00;;;;;;6135850;23;20044;-75
2022/06/29 13:18:23;;;;;;;3.50;1.00;;;28.60;52.20;;;;;;6160090;23;20012;-79
2022/06/29 13:21:26;;;;;;;2.83;0.90;;;28.90;51.00;;;;;;6186800;23;20004;-80
2022/06/29 13:57:28;;;;;;;4.20;0.82;;;30.20;50.40;;;;;;6213207;23;20017;-74
2022/06/29 14:00:14;;;;;;;7.45;0.88;;;30.30;48.60;;;;;;6185019;23;20017;-76
2022/06/29 14:02:52;;;;;;;1.80;0.80;;;29.90;50.20;;;;;;6159491;23;20013;-74
2022/06/29 14:09:20;;;;;;;;;;;;;;;;;;;;;
2022/06/29 14:22:11;;;;;;;1.98;0.88;;;29.50;52.30;;;;;;6157625;23;19908;-74
2022/06/29 14:25:57;;;;;;;1.55;0.80;;;29.50;50.00;;;;;;6094396;23;20068;-74
2022/06/29 14:32:35;;;;;;;;;;;29.20;51.20;;;;;;5999776;23;20024;-74
2022/06/29 14:35:13;;;;;;;3.55;0.88;;;29.10;52.30;;;;;;5996975;23;19916;-72
2022/06/29 14:37:39;;;;;;;8.23;1.02;;;29.50;50.50;;;;;;5990460;23;20426;-72
2022/06/29 14:40:08;;;;;;;5.85;1.20;;;30.00;51.50;;;;;;6037329;23;20322;-72
2022/06/29 14:42:37;;;;;;;2.55;1.10;;;30.40;52.20;;;;;;6046686;23;20019;-73
2022/06/29 14:45:10;;;;;;;4.50;0.98;;;30.70;49.40;;;;;;6049242;23;20026;-73
2022/06/29 14:48:11;;;;;;;;;;;;;;;;;;;;;
2022/06/29 15:31:57;;;;;;;6.88;0.88;;;30.20;47.20;;;;;;6175607;23;20968;-72
2022/06/29 15:40:14;;;;;;;5.95;1.05;;;30.40;45.80;;;;;;6187218;23;20322;-80
2022/06/29 15:49:55;;;;;;;3.28;0.90;;;31.10;46.30;;;;;;6213363;23;20054;-74
2022/06/29 15:56:53;;;;;;;1.92;0.80;;;31.80;45.40;;;;;;6186845;23;20016;-81
2022/06/29 15:59:25;;;;;;;1.33;0.90;;;32.60;45.40;;;;;;6068637;23;20074;-78
2022/06/29 16:01:50;;;;;;;3.72;1.02;;;32.10;44.90;;;;;;6044667;23;20049;-72
2022/06/29 16:04:16;;;;;;;3.08;1.00;;;32.10;46.00;;;;;;6044602;23;20013;-74
2022/06/29 16:07:12;;;;;;;2.50;1.10;;;32.10;46.20;;;;;;6068982;23;20506;-80
2022/06/29 16:10:03;;;;;;;5.57;0.80;;;31.90;44.20;;;;;;6044042;23;20018;-81
2022/06/29 16:16:18;;;;;;;2.22;1.00;;;31.10;44.30;;;;;;6174900;23;20027;-76
2022/06/29 16:19:40;;;;;;;2.58;1.10;;;30.90;46.10;;;;;;6161663;23;20017;-75
2022/06/29 16:22:19;;;;;;;3.92;1.30;;;30.50;46.40;;;;;;6186680;23;20442;-80
2022/06/29 16:24:56;;;;;;;1.65;1.15;;;30.50;45.90;;;;;;6163045;23;20012;-77
2022/06/29 16:27:22;;;;;;;5.05;1.20;;;30.40;46.90;;;;;;6186812;23;20028;-75
2022/06/29 16:29:53;;;;;;;1.45;1.00;;;30.00;48.00;;;;;;6161369;23;20016;-75
2022/06/29 16:32:26;;;;;;;5.13;1.20;;;29.50;48.60;;;;;;6187114;23;20011;-71
2022/06/29 16:34:59;;;;;;;7.80;1.20;;;29.30;49.40;;;;;;6162988;23;20024;-74
2022/06/29 16:37:34;;;;;;;5.75;1.17;;;29.30;49.60;;;;;;6163244;23;20022;-80
2022/06/29 16:39:59;;;;;;;7.00;1.70;;;30.00;50.20;;;;;;6186912;23;20086;-71
2022/06/29 16:42:31;;;;;;;2.80;1.60;;;30.40;50.50;;;;;;6162515;23;20020;-75
2022/06/29 16:46:05;;;;;;;;;;;;;;;;;;;;;
2022/06/29 16:52:17;;;;;;;5.47;2.05;;;31.50;56.40;;;;;;6213633;23;20071;-72
2022/06/29 16:54:48;;;;;;;6.25;1.65;;;31.40;56.90;;;;;;6187356;23;20424;-77
2022/06/29 16:57:24;;;;;;;4.95;1.88;;;31.50;57.60;;;;;;6162301;23;20005;-75
2022/06/29 17:00:14;;;;;;;4.32;2.10;;;31.90;57.20;;;;;;6190194;23;20082;-72
2022/06/29 17:03:04;;;;;;;6.40;2.40;;;31.90;56.40;;;;;;6162284;23;20078;-70
2022/06/29 17:05:35;;;;;;;7.95;2.90;;;31.90;56.90;;;;;;6162130;23;20024;-71
2022/06/29 17:08:18;;;;;;;7.70;2.55;;;31.60;57.20;;;;;;6161445;23;20059;-70
2022/06/29 17:11:14;;;;;;;4.45;2.17;;;31.30;57.20;;;;;;6162651;23;20009;-71
2022/06/29 17:13:45;;;;;;;6.43;2.03;;;30.80;59.40;;;;;;6162600;23;20457;-72
2022/06/29 17:16:58;;;;;;;6.50;2.25;;;30.20;61.00;;;;;;6164099;23;20015;-73
2022/06/29 17:19:36;;;;;;;4.95;2.30;;;29.70;62.80;;;;;;6173611;23;20096;-73
2022/06/29 17:22:18;;;;;;;5.95;2.45;;;29.10;64.00;;;;;;6217079;23;20360;-72
2022/06/29 17:24:58;;;;;;;7.57;2.70;;;28.90;66.70;;;;;;6187203;23;20450;-72
2022/06/29 17:27:34;;;;;;;9.32;3.72;;;28.60;67.60;;;;;;6166738;23;20036;-73
2022/06/29 17:31:09;;;;;;;8.90;3.53;;;28.30;68.50;;;;;;6166280;23;20237;-73
2022/06/29 17:33:51;;;;;;;10.35;3.95;;;28.10;70.60;;;;;;6132867;23;20556;-73
2022/06/29 17:36:18;;;;;;;10.52;5.03;;;27.80;71.10;;;;;;6214526;23;20016;-73
2022/06/29 17:38:44;;;;;;;8.80;4.88;;;27.60;73.70;;;;;;6190051;23;20015;-73
2022/06/29 17:41:09;;;;;;;13.98;5.70;;;27.50;74.00;;;;;;6217765;23;20232;-74
2022/06/29 17:43:35;;;;;;;9.90;4.53;;;27.30;74.70;;;;;;6192344;23;20019;-73
2022/06/29 17:46:02;;;;;;;9.27;4.70;;;27.10;75.40;;;;;;6165533;23;20095;-73
2022/06/29 17:48:28;;;;;;;6.57;4.38;;;27.00;76.40;;;;;;6189532;23;20304;-73
2022/06/29 17:50:54;;;;;;;10.68;4.20;;;26.90;77.50;;;;;;6190229;23;20074;-73
2022/06/29 17:53:20;;;;;;;9.35;4.55;;;26.70;78.40;;;;;;6189880;23;20347;-73
2022/06/29 17:55:46;;;;;;;8.75;5.10;;;26.60;78.50;;;;;;6190214;23;20017;-72
2022/06/29 17:58:12;;;;;;;8.93;4.53;;;26.40;78.70;;;;;;6189386;23;20012;-70
2022/06/29 18:00:37;;;;;;;9.95;4.47;;;26.30;79.10;;;;;;6164746;23;20044;-70
2022/06/29 18:03:03;;;;;;;7.00;3.88;;;26.10;79.50;;;;;;6216735;23;20013;-70
2022/06/29 18:05:29;;;;;;;8.55;4.00;;;26.00;79.80;;;;;;6190092;23;20013;-69
2022/06/29 18:07:55;;;;;;;7.95;3.85;;;26.00;80.30;;;;;;6164838;23;20092;-70
2022/06/29 18:10:21;;;;;;;10.43;4.43;;;25.90;80.70;;;;;;6165132;23;20438;-70
2022/06/29 18:12:47;;;;;;;12.23;4.95;;;25.80;81.60;;;;;;6216264;23;20423;-69
2022/06/29 18:15:12;;;;;;;7.82;4.45;;;25.70;81.50;;;;;;6165326;23;20015;-68
2022/06/29 18:17:38;;;;;;;10.85;4.78;;;25.60;81.70;;;;;;6164769;23;20449;-69
2022/06/29 18:20:04;;;;;;;8.60;4.80;;;25.50;81.90;;;;;;6189799;23;20782;-69
2022/06/29 18:22:33;;;;;;;8.15;3.85;;;25.40;82.50;;;;;;6189714;23;20374;-70
2022/06/29 18:24:59;;;;;;;9.15;3.67;;;25.30;82.90;;;;;;6189508;23;20366;-69
2022/06/29 18:27:25;;;;;;;7.53;3.80;;;25.20;83.00;;;;;;6164020;23;20043;-69
2022/06/29 18:29:50;;;;;;;9.30;4.55;;;25.10;83.70;;;;;;6190410;23;20095;-69
2022/06/29 18:32:18;;;;;;;9.45;4.53;;;25.00;83.80;;;;;;6219175;23;20047;-69
2022/06/29 18:39:44;;;;;;;8.65;5.22;;;24.80;86.70;;;;;;6215250;23;20014;-73
2022/06/29 18:42:10;;;;;;;8.27;5.57;;;24.70;88.00;;;;;;6164024;23;20020;-70
2022/06/29 18:44:36;;;;;;;11.30;5.03;;;24.50;86.40;;;;;;6187400;23;20513;-70
2022/06/29 18:47:02;;;;;;;8.23;5.00;;;24.40;87.10;;;;;;6187186;23;20008;-69
2022/06/29 18:49:28;;;;;;;8.45;5.63;;;24.40;87.70;;;;;;6164358;23;20387;-70
2022/06/29 18:51:54;;;;;;;11.65;6.05;;;24.30;88.10;;;;;;6189227;23;20019;-69
2022/06/29 18:54:19;;;;;;;9.30;6.35;;;24.20;88.80;;;;;;6215659;23;20439;-70
2022/06/29 18:56:45;;;;;;;14.65;6.68;;;24.10;89.90;;;;;;6189483;23;20012;-69
2022/06/29 18:59:13;;;;;;;11.75;6.05;;;24.00;90.20;;;;;;6164788;23;20052;-70
2022/06/29 19:01:39;;;;;;;10.18;6.15;;;24.00;90.50;;;;;;6189051;23;20491;-69
2022/06/29 19:04:05;;;;;;;11.88;6.15;;;23.90;90.60;;;;;;6164806;23;20052;-69
2022/06/29 19:06:30;;;;;;;14.45;5.65;;;23.80;90.70;;;;;;6164409;23;20005;-70
2022/06/29 19:08:58;;;;;;;13.85;6.05;;;23.70;91.10;;;;;;6215752;23;20063;-70
2022/06/29 19:14:09;;;;;;;10.00;6.00;;;23.50;91.60;;;;;;6189218;23;20023;-70
2022/06/29 19:16:35;;;;;;;8.15;5.57;;;23.40;91.70;;;;;;6189204;23;20035;-70
2022/06/29 19:19:00;;;;;;;9.35;6.60;;;23.40;91.90;;;;;;6215030;23;20004;-70
2022/06/29 19:21:26;;;;;;;12.73;6.78;;;23.30;92.20;;;;;;6164135;23;20013;-69
2022/06/29 19:24:00;;;;;;;7.57;5.78;;;23.20;92.30;;;;;;6139667;23;20009;-69
2022/06/29 19:26:26;;;;;;;12.05;5.97;;;23.20;93.70;;;;;;6164608;23;20372;-69
2022/06/29 19:28:52;;;;;;;;;;;23.10;92.90;;;;;;6189614;23;20015;-69
2022/06/29 19:31:18;;;;;;;16.20;6.82;;;22.90;94.30;;;;;;6188721;23;20310;-69
2022/06/29 19:33:43;;;;;;;;;;;22.80;93.20;;;;;;6164798;23;20063;-70
2022/06/29 19:36:11;;;;;;;10.27;5.80;;;22.80;94.40;;;;;;6164279;23;20330;-70
2022/06/29 19:38:37;;;;;;;11.80;5.43;;;22.70;93.30;;;;;;6164733;23;20016;-70
2022/06/29 19:41:03;;;;;;;10.23;5.78;;;22.60;93.40;;;;;;6188703;23;20013;-70
2022/06/29 19:43:29;;;;;;;;;;;22.50;93.60;;;;;;6189467;23;20023;-70
2022/06/29 19:46:03;;;;;;;9.55;6.10;;;22.50;94.70;;;;;;6188876;23;19935;-72
2022/06/29 19:48:29;;;;;;;9.93;6.07;;;22.40;94.60;;;;;;6189258;23;20061;-69
2022/06/29 19:50:55;;;;;;;;;;;22.30;94.00;;;;;;6216524;23;20016;-70
2022/06/29 19:53:21;;;;;;;10.85;6.75;;;22.20;95.30;;;;;;6215462;23;19984;-70
2022/06/29 19:55:46;;;;;;;;;;;22.10;94.20;;;;;;6190038;23;20012;-70
2022/06/29 19:58:12;;;;;;;11.57;7.25;;;22.10;95.50;;;;;;6188872;23;19931;-70
2022/06/29 20:00:37;;;;;;;;;;;22.00;94.60;;;;;;6216297;23;20087;-70
2022/06/29 20:03:03;;;;;;;11.73;6.70;;;21.90;95.90;;;;;;6164942;23;19911;-70
2022/06/29 20:05:29;;;;;;;;;;;21.80;94.70;;;;;;6189722;23;20012;-70
2022/06/29 20:07:58;;;;;;;14.60;7.13;;;21.80;96.00;;;;;;6164283;23;19986;-70
2022/06/29 20:10:23;;;;;;;9.95;6.53;;;21.60;95.00;;;;;;6188665;23;20455;-71
2022/06/29 20:12:49;;;;;;;;;;;21.60;94.80;;;;;;6189826;23;20020;-70
2022/06/29 20:15:14;;;;;;;10.98;7.07;;;21.50;95.70;;;;;;6189249;23;19926;-70
2022/06/29 20:17:40;;;;;;;;;;;21.50;94.80;;;;;;6163544;23;20082;-70
2022/06/29 20:20:07;;;;;;;9.52;7.78;;;21.40;95.90;;;;;;6213141;23;19915;-70
2022/06/29 20:22:33;;;;;;;10.18;8.45;;;21.30;95.00;;;;;;6164087;23;20451;-70
2022/06/29 20:24:59;;;;;;;;;;;21.30;95.00;;;;;;6164769;23;20024;-70
2022/06/29 20:27:24;;;;;;;11.15;7.55;;;21.20;96.00;;;;;;6164137;23;20265;-70
2022/06/29 20:29:50;;;;;;;;;;;21.20;95.00;;;;;;6188800;23;20035;-70
2022/06/29 20:32:16;;;;;;;9.77;7.47;;;21.10;96.70;;;;;;6188937;23;19915;-70
2022/06/29 20:34:41;;;;;;;9.75;7.93;;;21.00;95.40;;;;;;6215831;23;20064;-70
2022/06/29 20:37:07;;;;;;;12.82;8.07;;;20.90;95.70;;;;;;6189153;23;20379;-70
2022/06/29 20:39:33;;;;;;;;;;;20.90;95.80;;;;;;6164632;23;20016;-69
2022/06/29 20:41:58;;;;;;;10.65;7.82;;;20.80;96.80;;;;;;6188495;23;19963;-70
2022/06/29 20:47:28;;;;;;;10.05;8.00;;;20.70;96.20;;;;;;6083927;23;20014;-70
2022/06/29 20:49:54;;;;;;;13.32;9.00;;;20.70;96.30;;;;;;6171824;23;20095;-70
2022/06/29 20:52:22;;;;;;;10.35;8.98;;;20.60;96.50;;;;;;6166753;23;20505;-70
2022/06/29 20:54:48;;;;;;;14.25;9.18;;;20.60;96.60;;;;;;6191075;23;20013;-70
2022/06/29 20:57:13;;;;;;;;;;;20.60;96.70;;;;;;6166744;23;20067;-70
2022/06/29 20:59:41;;;;;;;11.18;9.07;;;20.50;98.00;;;;;;6165497;23;20323;-70
2022/06/29 21:02:07;;;;;;;14.50;9.23;;;20.50;96.90;;;;;;6217711;23;20020;-71
2022/06/29 21:04:33;;;;;;;12.93;9.75;;;20.40;97.00;;;;;;6165813;23;20331;-70
2022/06/29 21:06:59;;;;;;;;;;;20.40;97.50;;;;;;6191654;23;20013;-70
2022/06/29 21:09:26;;;;;;;12.43;9.85;;;20.30;98.50;;;;;;6165784;23;19912;-70
2022/06/29 21:11:55;;;;;;;14.68;9.85;;;20.30;97.40;;;;;;6190756;23;20012;-70
2022/06/29 21:14:21;;;;;;;15.90;10.32;;;20.30;97.50;;;;;;6190826;23;20017;-70
2022/06/29 21:16:47;;;;;;;13.07;9.68;;;20.30;97.50;;;;;;6217512;23;20300;-70
2022/06/29 21:19:13;;;;;;;19.88;8.95;;;20.20;97.60;;;;;;6140654;23;20047;-70
2022/06/29 21:21:39;;;;;;;10.65;9.40;;;20.20;97.80;;;;;;6165384;23;20022;-70
2022/06/29 21:24:05;;;;;;;10.45;9.35;;;20.10;97.90;;;;;;6190790;23;20008;-70
2022/06/29 21:26:31;;;;;;;10.27;8.60;;;20.10;98.10;;;;;;6165719;23;20476;-70
2022/06/29 21:28:56;;;;;;;14.43;9.77;;;20.10;98.10;;;;;;6217141;23;20058;-70
2022/06/29 21:31:22;;;;;;;12.65;10.38;;;20.00;98.20;;;;;;6216722;23;20051;-70
2022/06/29 21:33:48;;;;;;;12.07;10.38;;;20.00;98.40;;;;;;6215359;23;20445;-70
2022/06/29 21:36:14;;;;;;;11.77;9.10;;;19.90;98.50;;;;;;6165721;23;20047;-70
2022/06/29 21:38:39;;;;;;;12.25;9.57;;;19.90;98.60;;;;;;6165584;23;20016;-70
2022/06/29 21:41:06;;;;;;;15.40;9.82;;;19.80;98.60;;;;;;6165661;23;20019;-69
2022/06/29 21:43:34;;;;;;;;;;;19.80;98.70;;;;;;6166111;23;20020;-70
2022/06/29 21:46:00;;;;;;;11.55;9.60;;;19.80;99.70;;;;;;6190509;23;20438;-70
2022/06/29 21:51:10;;;;;;;12.90;9.95;;;19.70;99.10;;;;;;6169270;23;20066;-70
2022/06/29 21:53:37;;;;;;;13.85;10.23;;;19.70;99.20;;;;;;6190351;23;20020;-70
2022/06/29 21:56:03;;;;;;;12.60;10.95;;;19.60;99.30;;;;;;6165456;23;20092;-70
2022/06/29 21:58:32;;;;;;;13.90;11.88;;;19.60;99.40;;;;;;6189635;23;20052;-70
2022/06/29 22:00:57;;;;;;;14.32;10.77;;;19.50;99.50;;;;;;6164410;23;20020;-71
2022/06/29 22:04:01;;;;;;;;;;;;;;;;;;;;;
2022/06/29 22:07:00;;;;;;;12.13;10.35;;;19.50;99.90;;;;;;6095240;23;20041;-69
2022/06/29 22:23:41;;;;;;;14.10;10.77;;;19.10;99.90;;;;;;6174209;22;20034;-72
2022/06/29 22:26:10;;;;;;;12.27;10.73;;;19.10;99.90;;;;;;6165622;23;20024;-71
2022/06/29 22:28:39;;;;;;;16.58;12.75;;;19.10;99.90;;;;;;6141701;23;20380;-71
2022/06/29 22:31:05;;;;;;;17.63;12.57;;;19.10;99.90;;;;;;6165256;23;20017;-71
2022/06/29 22:33:31;;;;;;;;;;;19.00;99.90;;;;;;6192244;23;20069;-72